createdAt,value
2016-04-07T10:29:35.767Z,53.25
2016-04-07T10:30:33.770Z,53.63
2016-04-07T10:31:33.709Z,53.25
2016-04-07T10:32:33.696Z,53.25
2016-04-07T10:33:33.668Z,53.05
2016-04-07T10:34:33.656Z,52.76
2016-04-07T10:35:33.659Z,52.95
2016-04-07T10:36:33.645Z,53.15
2016-04-07T10:37:36.289Z,53.27
2016-04-07T10:38:34.712Z,53.56
2016-04-07T10:39:33.965Z,53.37
2016-04-07T10:40:33.733Z,53.75
2016-04-07T10:41:33.580Z,53.56
2016-04-07T10:42:33.552Z,53.17
2016-04-07T10:43:33.539Z,53.27
2016-04-07T10:44:33.558Z,53.56
2016-04-07T10:45:33.529Z,53.56
2016-04-07T10:46:33.359Z,53.37
2016-04-07T10:47:33.550Z,53.17
2016-04-07T10:48:33.506Z,53.17
2016-04-07T10:49:33.571Z,53.08
2016-04-07T10:50:33.464Z,53.56
2016-04-07T10:51:33.514Z,52.98
2016-04-07T10:52:33.486Z,53.56
2016-04-07T10:53:33.503Z,52.89
2016-04-07T10:54:33.444Z,52.69
2016-04-07T10:55:33.477Z,52.89
2016-04-07T10:56:33.418Z,52.89
2016-04-07T10:57:33.374Z,52.89
2016-04-07T10:58:33.345Z,52.31
2016-04-07T10:59:33.348Z,52.98
2016-04-07T11:00:33.350Z,52.79
2016-04-07T11:01:33.321Z,52.89
2016-04-07T11:02:33.371Z,52.59
2016-04-07T11:03:33.343Z,53.01
2016-04-07T11:04:33.283Z,52.89
2016-04-07T11:05:33.270Z,52.81
2016-04-07T11:06:33.273Z,52.81
2016-04-07T11:07:33.244Z,52.53
2016-04-07T11:08:33.247Z,52.33
2016-04-07T11:09:33.217Z,52.14
2016-04-07T11:10:33.377Z,52.43
2016-04-07T11:11:33.192Z,52.72
2016-04-07T11:12:33.289Z,51.75
2016-04-07T11:13:33.182Z,52.81
2016-04-07T11:14:33.170Z,52.81
2016-04-07T11:15:33.187Z,52.43
2016-04-07T11:16:33.128Z,51.95
2016-04-07T11:17:33.114Z,51.85
2016-04-07T11:18:33.102Z,51.46
2016-04-07T11:19:33.089Z,51.85
2016-04-07T11:20:33.108Z,51.95
2016-04-07T11:21:33.064Z,51.56
2016-04-07T11:22:33.066Z,51.46
2016-04-07T11:23:33.069Z,51.65
2016-04-07T11:24:33.071Z,52.72
2016-04-07T11:25:33.058Z,52.62
2016-04-07T11:26:32.998Z,52.43
2016-04-07T11:27:33.423Z,51.75
2016-04-07T11:28:32.988Z,51.95
2016-04-07T11:29:33.038Z,52.23
2016-04-07T11:30:32.978Z,51.95
2016-04-07T11:31:32.949Z,52.04
2016-04-07T11:32:32.952Z,51.75
2016-04-07T11:33:32.940Z,51.95
2016-04-07T11:34:32.957Z,52.43
2016-04-07T11:35:32.898Z,52.23
2016-04-07T11:36:32.885Z,52.45
2016-04-07T11:37:32.871Z,52.04
2016-04-07T11:38:32.859Z,52.17
2016-04-07T11:39:32.846Z,52.04
2016-04-07T11:40:32.834Z,52.26
2016-04-07T11:41:32.820Z,51.65
2016-04-07T11:42:32.807Z,52.81
2016-04-07T11:43:32.795Z,52.45
2016-04-07T11:44:32.797Z,52.26
2016-04-07T11:45:32.768Z,52.04
2016-04-07T11:46:32.771Z,52.07
2016-04-07T11:47:32.742Z,52.23
2016-04-07T11:48:32.730Z,52.14
2016-04-07T11:49:32.717Z,52.17
2016-04-07T11:50:32.719Z,51.87
2016-04-07T11:51:32.691Z,51.65
2016-04-07T11:52:32.678Z,51.56
2016-04-07T11:53:32.680Z,51.27
2016-04-07T11:54:32.652Z,50.89
2016-04-07T11:55:32.639Z,50.91
2016-04-07T11:56:32.642Z,51.37
2016-04-07T11:57:32.613Z,51.29
2016-04-07T11:58:32.600Z,50.79
2016-04-07T11:59:32.635Z,50.98
2016-04-07T12:00:32.590Z,51.01
2016-04-07T12:01:32.593Z,50.98
2016-04-07T12:02:32.549Z,50.62
2016-04-07T12:03:32.535Z,50.59
2016-04-07T12:04:32.523Z,50.62
2016-04-07T12:05:32.526Z,50.52
2016-04-07T12:06:32.512Z,50.79
2016-04-07T12:07:32.531Z,51.27
2016-04-07T12:08:32.471Z,50.71
2016-04-07T12:09:32.457Z,51.65
2016-04-07T12:10:32.460Z,50.98
2016-04-07T12:11:32.447Z,51.01
2016-04-07T12:12:32.434Z,51.65
2016-04-07T12:13:32.422Z,51.85
2016-04-07T12:14:32.409Z,51.59
2016-04-07T12:15:32.396Z,51.65
2016-04-07T12:16:32.383Z,51.27
2016-04-07T12:17:32.370Z,51.46
2016-04-07T12:18:32.356Z,51.46
2016-04-07T12:19:32.328Z,51.56
2016-04-07T12:20:32.331Z,51.56
2016-04-07T12:21:32.349Z,51.75
2016-04-07T12:22:32.305Z,51.37
2016-04-07T12:23:32.291Z,51.46
2016-04-07T12:24:32.279Z,51.46
2016-04-07T12:25:32.297Z,52.04
2016-04-07T12:26:32.253Z,51.95
2016-04-07T12:27:32.241Z,52.33
2016-04-07T12:28:32.227Z,51.95
2016-04-07T12:29:32.215Z,52.23
2016-04-07T12:30:32.202Z,52.33
2016-04-07T12:31:32.204Z,52.43
2016-04-07T12:32:32.176Z,52.43
2016-04-07T12:33:32.178Z,52.33
2016-04-07T12:34:32.149Z,52.33
2016-04-07T12:35:32.137Z,52.43
2016-04-07T12:36:32.109Z,51.95
2016-04-07T12:37:32.112Z,52.43
2016-04-07T12:38:32.098Z,52.23
2016-04-07T12:39:32.085Z,51.85
2016-04-07T12:40:32.072Z,52.53
2016-04-07T12:41:32.059Z,52.43
2016-04-07T12:42:32.046Z,53.01
2016-04-07T12:43:32.034Z,52.72
2016-04-07T12:44:32.021Z,52.72
2016-04-07T12:45:32.008Z,52.53
2016-04-07T12:46:32.042Z,52.72
2016-04-07T12:47:31.966Z,53.49
2016-04-07T12:48:31.969Z,53.39
2016-04-07T12:49:31.955Z,53.69
2016-04-07T12:50:31.942Z,53.69
2016-04-07T12:51:31.930Z,53.11
2016-04-07T12:52:31.916Z,53.39
2016-04-07T12:53:31.905Z,53.11
2016-04-07T12:54:31.969Z,53.39
2016-04-07T12:55:31.894Z,53.59
2016-04-07T12:56:31.884Z,53.3
2016-04-07T12:57:31.902Z,53.11
2016-04-07T12:58:31.858Z,53.2
2016-04-07T12:59:31.829Z,53.11
2016-04-07T13:00:31.816Z,52.81
2016-04-07T13:01:31.804Z,52.62
2016-04-07T13:02:31.791Z,52.72
2016-04-07T13:03:31.855Z,53.01
2016-04-07T13:04:31.780Z,52.91
2016-04-07T13:05:31.846Z,52.84
2016-04-07T13:06:31.817Z,52.72
2016-04-07T13:07:31.726Z,52.84
2016-04-07T13:08:31.713Z,52.91
2016-04-07T13:09:31.715Z,52.84
2016-04-07T13:10:31.734Z,52.45
2016-04-07T13:11:31.674Z,52.62
2016-04-07T13:12:31.708Z,52.33
2016-04-07T13:13:31.665Z,52.33
2016-04-07T13:14:31.635Z,52.55
2016-04-07T13:15:31.623Z,52.36
2016-04-07T13:16:31.609Z,52.55
2016-04-07T13:17:31.597Z,52.55
2016-04-07T13:18:31.614Z,52.36
2016-04-07T13:19:31.570Z,52.94
2016-04-07T13:20:31.558Z,52.84
2016-04-07T13:21:31.544Z,52.55
2016-04-07T13:22:31.532Z,52.94
2016-04-07T13:23:31.519Z,52.81
2016-04-07T13:24:31.522Z,52.65
2016-04-07T13:25:31.587Z,52.84
2016-04-07T13:26:31.480Z,53.03
2016-04-07T13:27:31.472Z,52.75
2016-04-07T13:28:31.459Z,52.75
2016-04-07T13:29:31.446Z,52.75
2016-04-07T13:30:31.605Z,52.75
2016-04-07T13:31:31.421Z,52.26
2016-04-07T13:32:31.455Z,52.45
2016-04-07T13:33:31.410Z,52.36
2016-04-07T13:34:31.382Z,52.36
2016-04-07T13:35:31.368Z,52.45
2016-04-07T13:36:31.356Z,52.36
2016-04-07T13:37:31.342Z,52.45
2016-04-07T13:38:31.376Z,52.26
2016-04-07T13:39:31.379Z,52.45
2016-04-07T13:40:31.476Z,52.75
2016-04-07T13:41:31.526Z,52.36
2016-04-07T13:42:31.340Z,52.55
2016-04-07T13:43:31.375Z,52.55
2016-04-07T13:44:31.315Z,52.45
2016-04-07T13:45:31.286Z,52.36
2016-04-07T13:46:31.289Z,52.48
2016-04-07T13:47:31.369Z,52.58
2016-04-07T13:48:31.434Z,52.39
2016-04-07T13:49:31.266Z,52.36
2016-04-07T13:50:31.237Z,51.9
2016-04-07T13:51:31.224Z,52.09
2016-04-07T13:52:31.242Z,51.81
2016-04-07T13:53:31.277Z,52.29
2016-04-07T13:54:31.233Z,52.48
2016-04-07T13:55:31.625Z,52
2016-04-07T13:56:31.144Z,52
2016-04-07T13:57:31.115Z,52.48
2016-04-07T13:58:31.118Z,52.58
2016-04-07T13:59:31.105Z,52.58
2016-04-07T14:00:31.139Z,52.58
2016-04-07T14:01:31.033Z,52.87
2016-04-07T14:02:31.051Z,52.58
2016-04-07T14:03:31.116Z,52.48
2016-04-07T14:04:30.993Z,52.48
2016-04-07T14:05:31.012Z,52.48
2016-04-07T14:06:30.982Z,52.48
2016-04-07T14:07:30.970Z,52.58
2016-04-07T14:08:31.098Z,52.58
2016-04-07T14:09:31.069Z,52.67
2016-04-07T14:10:30.932Z,52.67
2016-04-07T14:11:30.934Z,52.67
2016-04-07T14:12:30.906Z,52.67
2016-04-07T14:13:30.924Z,52.58
2016-04-07T14:14:30.879Z,52.48
2016-04-07T14:15:30.867Z,52.77
2016-04-07T14:16:30.869Z,52.67
2016-04-07T14:17:30.841Z,52.87
2016-04-07T14:18:31.030Z,52.58
2016-04-07T14:19:30.814Z,52.67
2016-04-07T14:20:30.802Z,52.61
2016-04-07T14:21:30.805Z,52.58
2016-04-07T14:22:30.776Z,52.41
2016-04-07T14:23:30.888Z,52.87
2016-04-07T14:24:30.766Z,52.77
2016-04-07T14:25:30.753Z,52.8
2016-04-07T14:26:30.741Z,52.77
2016-04-07T14:27:30.728Z,52.89
2016-04-07T14:28:30.714Z,52.87
2016-04-07T14:29:30.686Z,52.48
2016-04-07T14:30:30.673Z,52.87
2016-04-07T14:31:30.675Z,52.97
2016-04-07T14:32:30.663Z,52.97
2016-04-07T14:33:30.649Z,52.67
2016-04-07T14:34:30.637Z,53.25
2016-04-07T14:35:30.623Z,52.97
2016-04-07T14:36:30.610Z,52.67
2016-04-07T14:37:30.785Z,53.16
2016-04-07T14:38:30.568Z,52.97
2016-04-07T14:39:30.571Z,53.06
2016-04-07T14:40:30.606Z,53.16
2016-04-07T14:41:30.546Z,53.45
2016-04-07T14:42:30.534Z,53.45
2016-04-07T14:43:30.520Z,53.16
2016-04-07T14:44:30.523Z,53.35
2016-04-07T14:45:30.494Z,53.06
2016-04-07T14:46:30.481Z,53.25
2016-04-07T14:47:30.484Z,53.35
2016-04-07T14:48:30.455Z,53.35
2016-04-07T14:49:30.442Z,53.35
2016-04-07T14:50:30.429Z,53.35
2016-04-07T14:51:30.417Z,53.16
2016-04-07T14:52:30.403Z,53.45
2016-04-07T14:53:30.391Z,53.64
2016-04-07T14:54:30.378Z,53.74
2016-04-07T14:55:30.364Z,53.45
2016-04-07T14:56:30.383Z,53.35
2016-04-07T14:57:30.402Z,53.74
2016-04-07T14:58:30.326Z,53.47
2016-04-07T14:59:30.376Z,53.64
2016-04-07T15:00:30.300Z,53.38
2016-04-07T15:01:30.288Z,53.38
2016-04-07T15:02:30.556Z,53.74
2016-04-07T15:03:30.277Z,53.64
2016-04-07T15:04:30.264Z,53.47
2016-04-07T15:05:30.845Z,53.57
2016-04-07T15:06:30.238Z,53.67
2016-04-07T15:07:30.209Z,53.67
2016-04-07T15:08:30.196Z,53.25
2016-04-07T15:09:30.246Z,53.47
2016-04-07T15:10:30.170Z,53.09
2016-04-07T15:11:30.158Z,52.99
2016-04-07T15:12:30.270Z,53.67
2016-04-07T15:13:30.132Z,53.19
2016-04-07T15:14:30.306Z,53.38
2016-04-07T15:15:30.106Z,52.8
2016-04-07T15:16:30.155Z,53.19
2016-04-07T15:17:30.111Z,52.99
2016-04-07T15:18:30.083Z,52.8
2016-04-07T15:19:30.116Z,52.89
2016-04-07T15:20:30.056Z,53.09
2016-04-07T15:21:30.559Z,52.51
2016-04-07T15:22:30.031Z,52.99
2016-04-07T15:23:30.019Z,53.38
2016-04-07T15:24:30.036Z,53.47
2016-04-07T15:25:29.992Z,53.28
2016-04-07T15:26:30.010Z,53.38
2016-04-07T15:27:29.966Z,52.89
2016-04-07T15:28:29.954Z,52.7
2016-04-07T15:29:30.003Z,52.7
2016-04-07T15:30:29.928Z,52.8
2016-04-07T15:31:29.916Z,52.8
2016-04-07T15:32:29.918Z,52.89
2016-04-07T15:33:29.889Z,52.8
2016-04-07T15:34:30.173Z,52.89
2016-04-07T15:35:29.879Z,52.89
2016-04-07T15:36:30.021Z,52.89
2016-04-07T15:37:29.946Z,52.99
2016-04-07T15:38:29.824Z,52.89
2016-04-07T15:39:29.826Z,52.89
2016-04-07T15:40:29.799Z,53.57
2016-04-07T15:41:29.832Z,53.28
2016-04-07T15:42:29.929Z,52.99
2016-04-07T15:43:29.838Z,53.28
2016-04-07T15:44:29.840Z,53.86
2016-04-07T15:45:29.811Z,53.77
2016-04-07T15:46:29.752Z,53.38
2016-04-07T15:47:29.723Z,53.09
2016-04-07T15:48:29.711Z,53.47
2016-04-07T15:49:29.806Z,53.19
2016-04-07T15:50:29.684Z,53.57
2016-04-07T15:51:29.672Z,53.19
2016-04-07T15:52:29.658Z,52.99
2016-04-07T15:53:29.661Z,52.63
2016-04-07T15:54:29.633Z,52.89
2016-04-07T15:55:29.620Z,52.92
2016-04-07T15:56:29.903Z,52.82
2016-04-07T15:57:29.641Z,53.02
2016-04-07T15:58:29.581Z,52.63
2016-04-07T15:59:29.568Z,52.82
2016-04-07T16:00:29.571Z,52.99
2016-04-07T16:01:29.542Z,52.63
2016-04-07T16:02:29.544Z,52.92
2016-04-07T16:03:29.516Z,53.59
2016-04-07T16:04:29.582Z,52.92
2016-04-07T16:05:29.584Z,52.7
2016-04-07T16:06:29.665Z,52.73
2016-04-07T16:07:29.480Z,53.02
2016-04-07T16:08:29.468Z,52.73
2016-04-07T16:09:29.455Z,52.99
2016-04-07T16:10:29.535Z,53.41
2016-04-07T16:11:29.429Z,53.47
2016-04-07T16:12:29.416Z,53.38
2016-04-07T16:13:29.419Z,53.67
2016-04-07T16:14:29.421Z,53.67
2016-04-07T16:15:29.393Z,53.77
2016-04-07T16:16:29.365Z,53.38
2016-04-07T16:17:29.351Z,53.57
2016-04-07T16:18:29.338Z,53.47
2016-04-07T16:19:29.340Z,53.28
2016-04-07T16:20:29.312Z,53.67
2016-04-07T16:21:29.299Z,53.57
2016-04-07T16:22:29.286Z,53.57
2016-04-07T16:23:29.273Z,53.47
2016-04-07T16:24:29.260Z,53.86
2016-04-07T16:25:30.295Z,53.77
2016-04-07T16:26:29.234Z,53.77
2016-04-07T16:27:29.222Z,53.86
2016-04-07T16:28:29.224Z,53.86
2016-04-07T16:29:29.227Z,53.47
2016-04-07T16:30:29.183Z,53.86
2016-04-07T16:31:29.232Z,53.86
2016-04-07T16:32:29.204Z,54.15
2016-04-07T16:33:29.206Z,53.96
2016-04-07T16:34:29.177Z,53.93
2016-04-07T16:35:29.118Z,53.64
2016-04-07T16:36:29.168Z,54.25
2016-04-07T16:37:29.093Z,54.51
2016-04-07T16:38:29.096Z,53.74
2016-04-07T16:39:29.254Z,53.86
2016-04-07T16:40:29.554Z,54.15
2016-04-07T16:41:29.087Z,53.83
2016-04-07T16:42:29.075Z,53.45
2016-04-07T16:43:29.015Z,53.83
2016-04-07T16:44:29.049Z,53.55
2016-04-07T16:45:29.021Z,53.83
2016-04-07T16:46:29.117Z,53.74
2016-04-07T16:47:28.963Z,53.74
2016-04-07T16:48:28.950Z,53.83
2016-04-07T16:49:29.250Z,54.03
2016-04-07T16:50:28.939Z,53.45
2016-04-07T16:51:29.098Z,53.74
2016-04-07T16:52:28.945Z,53.35
2016-04-07T16:53:28.978Z,53.64
2016-04-07T16:54:29.059Z,53.45
2016-04-07T16:55:28.984Z,53.47
2016-04-07T16:56:29.300Z,53.55
2016-04-07T16:57:29.005Z,53.25
2016-04-07T16:58:28.836Z,53.19
2016-04-07T16:59:29.073Z,53.16
2016-04-07T17:00:29.186Z,52.97
2016-04-07T17:01:28.985Z,53.16
2016-04-07T17:02:28.831Z,52.97
2016-04-07T17:03:28.866Z,52.97
2016-04-07T17:04:28.977Z,52.97
2016-04-07T17:05:28.761Z,52.67
2016-04-07T17:06:28.999Z,52.67
2016-04-07T17:07:28.783Z,53.35
2016-04-07T17:08:28.759Z,52.97
2016-04-07T17:09:28.683Z,52.87
2016-04-07T17:10:28.905Z,52.87
2016-04-07T17:11:28.673Z,52.61
2016-04-07T17:12:28.723Z,52.51
2016-04-07T17:13:28.678Z,52.87
2016-04-07T17:14:28.712Z,52.77
2016-04-07T17:15:28.934Z,52.58
2016-04-07T17:16:28.718Z,52.77
2016-04-07T17:17:28.892Z,52.77
2016-04-07T17:18:28.770Z,52.77
2016-04-07T17:19:28.569Z,52.39
2016-04-07T17:20:28.542Z,52.12
2016-04-07T17:21:28.544Z,51.81
2016-04-07T17:22:28.520Z,52.09
2016-04-07T17:23:28.508Z,51.93
2016-04-07T17:24:28.494Z,52.02
2016-04-07T17:25:28.481Z,52.12
2016-04-07T17:26:28.468Z,52.09
2016-04-07T17:27:28.456Z,52.09
2016-04-07T17:28:28.441Z,52.39
2016-04-07T17:29:28.444Z,52.48
2016-04-07T17:30:28.433Z,51.81
2016-04-07T17:31:28.404Z,52.09
2016-04-07T17:32:28.391Z,51.9
2016-04-07T17:33:28.377Z,52
2016-04-07T17:34:28.380Z,51.9
2016-04-07T17:35:28.352Z,52
2016-04-07T17:36:28.338Z,51.81
2016-04-07T17:37:28.334Z,51.9
2016-04-07T17:38:28.321Z,51.81
2016-04-07T17:39:28.307Z,51.61
2016-04-07T17:40:28.310Z,51.71
2016-04-07T17:41:28.281Z,51.9
2016-04-07T17:42:28.254Z,51.9
2016-04-07T17:43:28.256Z,51.61
2016-04-07T17:44:28.243Z,51.42
2016-04-07T17:45:28.231Z,50.93
2016-04-07T17:46:28.217Z,50.93
2016-04-07T17:47:28.189Z,50.93
2016-04-07T17:48:28.192Z,51.71
2016-04-07T17:49:28.163Z,51.81
2016-04-07T17:50:28.165Z,51.61
2016-04-07T17:51:28.184Z,51.23
2016-04-07T17:52:28.156Z,51.32
2016-04-07T17:53:28.127Z,50.93
2016-04-07T17:54:28.145Z,50.55
2016-04-07T17:55:28.163Z,51.03
2016-04-07T17:56:28.135Z,51.03
2016-04-07T17:57:28.059Z,50.65
2016-04-07T17:58:28.078Z,50.84
2016-04-07T17:59:28.049Z,50.93
